sensor_id;sensor_type;location;lat;lon;timestamp;P1;durP1;ratioP1;P2;durP2;ratioP2
36797;SDS011;22748;8.426;99.512;2023-02-28T00:01:46;42.90;;;32.97;;
36797;SDS011;22748;8.426;99.512;2023-02-28T00:04:18;36.67;;;31.25;;
36797;SDS011;22748;8.426;99.512;2023-02-28T00:06:49;38.20;;;32.33;;
36797;SDS011;22748;8.426;99.512;2023-02-28T00:09:23;51.80;;;36.95;;
36797;SDS011;22748;8.426;99.512;2023-02-28T00:11:54;47.80;;;37.35;;
36797;SDS011;22748;8.426;99.512;2023-02-28T00:14:24;48.85;;;40.30;;
36797;SDS011;22748;8.426;99.512;2023-02-28T00:16:59;54.78;;;39.63;;
36797;SDS011;22748;8.426;99.512;2023-02-28T00:19:32;51.75;;;36.90;;
36797;SDS011;22748;8.426;99.512;2023-02-28T00:22:03;52.05;;;35.88;;
36797;SDS011;22748;8.426;99.512;2023-02-28T00:24:39;43.63;;;34.72;;
36797;SDS011;22748;8.426;99.512;2023-02-28T00:27:10;45.08;;;33.38;;
36797;SDS011;22748;8.426;99.512;2023-02-28T00:29:41;42.17;;;33.47;;
36797;SDS011;22748;8.426;99.512;2023-02-28T00:32:11;42.55;;;34.40;;
36797;SDS011;22748;8.426;99.512;2023-02-28T00:34:44;46.88;;;33.25;;
36797;SDS011;22748;8.426;99.512;2023-02-28T00:37:14;38.03;;;31.30;;
36797;SDS011;22748;8.426;99.512;2023-02-28T00:39:44;48.30;;;35.97;;
36797;SDS011;22748;8.426;99.512;2023-02-28T00:42:17;45.90;;;34.85;;
36797;SDS011;22748;8.426;99.512;2023-02-28T00:44:47;53.35;;;36.42;;
36797;SDS011;22748;8.426;99.512;2023-02-28T00:47:17;47.90;;;35.42;;
36797;SDS011;22748;8.426;99.512;2023-02-28T00:49:50;48.00;;;36.35;;
36797;SDS011;22748;8.426;99.512;2023-02-28T00:52:22;49.55;;;36.20;;
36797;SDS011;22748;8.426;99.512;2023-02-28T00:54:52;44.38;;;36.15;;
36797;SDS011;22748;8.426;99.512;2023-02-28T00:57:27;48.55;;;37.67;;
36797;SDS011;22748;8.426;99.512;2023-02-28T01:00:03;52.00;;;37.58;;
36797;SDS011;22748;8.426;99.512;2023-02-28T01:02:37;56.08;;;38.63;;
36797;SDS011;22748;8.426;99.512;2023-02-28T01:05:13;52.22;;;38.78;;
36797;SDS011;22748;8.426;99.512;2023-02-28T01:07:44;49.88;;;36.72;;
36797;SDS011;22748;8.426;99.512;2023-02-28T01:10:17;64.43;;;46.72;;
36797;SDS011;22748;8.426;99.512;2023-02-28T01:12:48;72.95;;;50.22;;
36797;SDS011;22748;8.426;99.512;2023-02-28T01:15:19;62.55;;;48.53;;
36797;SDS011;22748;8.426;99.512;2023-02-28T01:17:50;70.10;;;52.22;;
36797;SDS011;22748;8.426;99.512;2023-02-28T01:20:22;59.83;;;46.08;;
36797;SDS011;22748;8.426;99.512;2023-02-28T01:22:53;59.92;;;43.92;;
36797;SDS011;22748;8.426;99.512;2023-02-28T01:25:24;52.70;;;40.28;;
36797;SDS011;22748;8.426;99.512;2023-02-28T01:27:55;61.58;;;42.08;;
36797;SDS011;22748;8.426;99.512;2023-02-28T01:30:26;53.75;;;40.00;;
36797;SDS011;22748;8.426;99.512;2023-02-28T01:32:58;47.35;;;34.92;;
36797;SDS011;22748;8.426;99.512;2023-02-28T01:35:31;54.97;;;38.30;;
36797;SDS011;22748;8.426;99.512;2023-02-28T01:38:01;54.30;;;38.05;;
36797;SDS011;22748;8.426;99.512;2023-02-28T01:40:31;44.33;;;33.10;;
36797;SDS011;22748;8.426;99.512;2023-02-28T01:43:01;40.00;;;31.58;;
36797;SDS011;22748;8.426;99.512;2023-02-28T01:45:34;43.95;;;29.02;;
36797;SDS011;22748;8.426;99.512;2023-02-28T01:48:07;45.47;;;30.25;;
36797;SDS011;22748;8.426;99.512;2023-02-28T01:50:41;41.13;;;29.48;;
36797;SDS011;22748;8.426;99.512;2023-02-28T01:53:17;37.65;;;29.35;;
36797;SDS011;22748;8.426;99.512;2023-02-28T01:55:53;39.72;;;31.63;;
36797;SDS011;22748;8.426;99.512;2023-02-28T01:58:23;41.35;;;31.42;;
36797;SDS011;22748;8.426;99.512;2023-02-28T02:00:54;39.60;;;31.02;;
36797;SDS011;22748;8.426;99.512;2023-02-28T02:03:26;38.17;;;28.90;;
36797;SDS011;22748;8.426;99.512;2023-02-28T02:05:57;40.03;;;29.42;;
36797;SDS011;22748;8.426;99.512;2023-02-28T02:08:29;40.05;;;32.70;;
36797;SDS011;22748;8.426;99.512;2023-02-28T02:10:59;45.63;;;33.78;;
36797;SDS011;22748;8.426;99.512;2023-02-28T02:13:42;41.92;;;32.40;;
36797;SDS011;22748;8.426;99.512;2023-02-28T02:16:34;40.38;;;31.65;;
36797;SDS011;22748;8.426;99.512;2023-02-28T02:19:15;40.60;;;31.58;;
36797;SDS011;22748;8.426;99.512;2023-02-28T02:22:37;35.28;;;29.25;;
36797;SDS011;22748;8.426;99.512;2023-02-28T02:25:28;37.10;;;27.92;;
36797;SDS011;22748;8.426;99.512;2023-02-28T02:28:09;35.40;;;27.98;;
36797;SDS011;22748;8.426;99.512;2023-02-28T02:30:59;36.88;;;27.35;;
36797;SDS011;22748;8.426;99.512;2023-02-28T02:36:58;31.92;;;26.65;;
36797;SDS011;22748;8.426;99.512;2023-02-28T02:39:36;28.77;;;25.60;;
36797;SDS011;22748;8.426;99.512;2023-02-28T02:42:16;34.15;;;26.70;;
36797;SDS011;22748;8.426;99.512;2023-02-28T02:45:00;31.55;;;26.25;;
36797;SDS011;22748;8.426;99.512;2023-02-28T02:47:37;29.42;;;26.23;;
36797;SDS011;22748;8.426;99.512;2023-02-28T02:50:11;29.35;;;26.15;;
36797;SDS011;22748;8.426;99.512;2023-02-28T02:52:50;32.08;;;26.63;;
36797;SDS011;22748;8.426;99.512;2023-02-28T02:55:26;31.27;;;26.15;;
36797;SDS011;22748;8.426;99.512;2023-02-28T02:58:01;31.83;;;27.00;;
36797;SDS011;22748;8.426;99.512;2023-02-28T03:00:34;29.48;;;26.10;;
36797;SDS011;22748;8.426;99.512;2023-02-28T03:03:09;31.42;;;26.35;;
36797;SDS011;22748;8.426;99.512;2023-02-28T03:05:42;28.15;;;25.15;;
36797;SDS011;22748;8.426;99.512;2023-02-28T03:08:18;34.40;;;28.75;;
36797;SDS011;22748;8.426;99.512;2023-02-28T03:10:49;30.05;;;26.40;;
36797;SDS011;22748;8.426;99.512;2023-02-28T03:13:30;31.55;;;26.13;;
36797;SDS011;22748;8.426;99.512;2023-02-28T03:16:23;29.92;;;24.48;;
36797;SDS011;22748;8.426;99.512;2023-02-28T03:19:06;29.77;;;25.08;;
36797;SDS011;22748;8.426;99.512;2023-02-28T03:21:56;33.10;;;25.85;;
36797;SDS011;22748;8.426;99.512;2023-02-28T03:24:37;30.02;;;25.35;;
36797;SDS011;22748;8.426;99.512;2023-02-28T03:27:16;31.17;;;24.83;;
36797;SDS011;22748;8.426;99.512;2023-02-28T03:29:53;26.80;;;23.95;;
36797;SDS011;22748;8.426;99.512;2023-02-28T03:32:29;29.10;;;25.75;;
36797;SDS011;22748;8.426;99.512;2023-02-28T03:35:07;30.65;;;26.63;;
36797;SDS011;22748;8.426;99.512;2023-02-28T03:37:48;30.77;;;24.77;;
36797;SDS011;22748;8.426;99.512;2023-02-28T03:40:23;27.90;;;23.75;;
36797;SDS011;22748;8.426;99.512;2023-02-28T03:42:58;29.13;;;25.25;;
36797;SDS011;22748;8.426;99.512;2023-02-28T03:45:32;28.15;;;24.63;;
36797;SDS011;22748;8.426;99.512;2023-02-28T03:48:07;26.70;;;23.83;;
36797;SDS011;22748;8.426;99.512;2023-02-28T03:50:43;28.33;;;23.73;;
36797;SDS011;22748;8.426;99.512;2023-02-28T03:53:18;27.70;;;23.95;;
36797;SDS011;22748;8.426;99.512;2023-02-28T03:55:59;26.38;;;23.73;;
36797;SDS011;22748;8.426;99.512;2023-02-28T03:58:39;26.80;;;23.98;;
36797;SDS011;22748;8.426;99.512;2023-02-28T04:01:16;28.05;;;23.17;;
36797;SDS011;22748;8.426;99.512;2023-02-28T04:03:50;28.33;;;22.73;;
36797;SDS011;22748;8.426;99.512;2023-02-28T04:06:21;27.35;;;22.02;;
36797;SDS011;22748;8.426;99.512;2023-02-28T04:11:25;36.53;;;23.20;;
36797;SDS011;22748;8.426;99.512;2023-02-28T04:14:01;27.98;;;22.13;;
36797;SDS011;22748;8.426;99.512;2023-02-28T04:16:33;25.48;;;22.80;;
36797;SDS011;22748;8.426;99.512;2023-02-28T04:19:05;25.45;;;22.75;;
36797;SDS011;22748;8.426;99.512;2023-02-28T04:21:38;33.03;;;25.23;;
36797;SDS011;22748;8.426;99.512;2023-02-28T04:24:11;27.60;;;22.40;;
36797;SDS011;22748;8.426;99.512;2023-02-28T04:26:45;23.55;;;20.50;;
36797;SDS011;22748;8.426;99.512;2023-02-28T04:29:19;23.95;;;20.58;;
36797;SDS011;22748;8.426;99.512;2023-02-28T04:31:51;22.70;;;20.30;;
36797;SDS011;22748;8.426;99.512;2023-02-28T04:34:25;21.58;;;18.52;;
36797;SDS011;22748;8.426;99.512;2023-02-28T04:36:56;22.35;;;19.02;;
36797;SDS011;22748;8.426;99.512;2023-02-28T04:39:27;23.27;;;18.55;;
36797;SDS011;22748;8.426;99.512;2023-02-28T04:47:02;21.35;;;19.17;;
36797;SDS011;22748;8.426;99.512;2023-02-28T04:52:03;21.30;;;18.85;;
36797;SDS011;22748;8.426;99.512;2023-02-28T04:54:34;24.63;;;20.90;;
36797;SDS011;22748;8.426;99.512;2023-02-28T04:57:09;21.75;;;19.40;;
36797;SDS011;22748;8.426;99.512;2023-02-28T04:59:40;24.10;;;20.67;;
36797;SDS011;22748;8.426;99.512;2023-02-28T05:04:41;23.65;;;20.85;;
36797;SDS011;22748;8.426;99.512;2023-02-28T05:07:23;25.75;;;22.63;;
36797;SDS011;22748;8.426;99.512;2023-02-28T05:10:02;26.20;;;21.20;;
36797;SDS011;22748;8.426;99.512;2023-02-28T05:12:39;30.38;;;22.58;;
36797;SDS011;22748;8.426;99.512;2023-02-28T05:15:12;26.70;;;22.38;;
36797;SDS011;22748;8.426;99.512;2023-02-28T05:17:43;25.58;;;22.83;;
36797;SDS011;22748;8.426;99.512;2023-02-28T05:20:15;30.20;;;23.73;;
36797;SDS011;22748;8.426;99.512;2023-02-28T05:22:45;27.60;;;23.65;;
36797;SDS011;22748;8.426;99.512;2023-02-28T05:25:17;25.65;;;22.40;;
36797;SDS011;22748;8.426;99.512;2023-02-28T05:27:52;28.45;;;23.27;;
36797;SDS011;22748;8.426;99.512;2023-02-28T05:30:23;26.55;;;22.73;;
36797;SDS011;22748;8.426;99.512;2023-02-28T05:32:54;26.13;;;23.23;;
36797;SDS011;22748;8.426;99.512;2023-02-28T05:35:24;27.60;;;23.52;;
36797;SDS011;22748;8.426;99.512;2023-02-28T05:37:55;27.05;;;23.77;;
36797;SDS011;22748;8.426;99.512;2023-02-28T05:40:25;27.80;;;23.03;;
36797;SDS011;22748;8.426;99.512;2023-02-28T05:42:59;28.33;;;23.42;;
36797;SDS011;22748;8.426;99.512;2023-02-28T05:45:29;26.40;;;23.23;;
36797;SDS011;22748;8.426;99.512;2023-02-28T05:48:13;28.60;;;24.08;;
36797;SDS011;22748;8.426;99.512;2023-02-28T05:50:45;30.50;;;23.67;;
36797;SDS011;22748;8.426;99.512;2023-02-28T05:53:16;26.93;;;23.67;;
36797;SDS011;22748;8.426;99.512;2023-02-28T05:55:47;31.95;;;23.70;;
36797;SDS011;22748;8.426;99.512;2023-02-28T05:58:19;27.58;;;22.50;;
36797;SDS011;22748;8.426;99.512;2023-02-28T06:00:55;25.40;;;22.65;;
36797;SDS011;22748;8.426;99.512;2023-02-28T06:03:30;27.70;;;24.85;;
36797;SDS011;22748;8.426;99.512;2023-02-28T06:06:06;30.38;;;24.17;;
36797;SDS011;22748;8.426;99.512;2023-02-28T06:08:41;27.80;;;24.02;;
36797;SDS011;22748;8.426;99.512;2023-02-28T06:11:12;29.55;;;24.42;;
36797;SDS011;22748;8.426;99.512;2023-02-28T06:13:45;26.90;;;23.73;;
36797;SDS011;22748;8.426;99.512;2023-02-28T06:16:16;28.17;;;24.00;;
36797;SDS011;22748;8.426;99.512;2023-02-28T06:18:47;26.63;;;23.85;;
36797;SDS011;22748;8.426;99.512;2023-02-28T06:21:18;26.55;;;23.80;;
36797;SDS011;22748;8.426;99.512;2023-02-28T06:23:49;26.48;;;23.67;;
36797;SDS011;22748;8.426;99.512;2023-02-28T06:28:51;27.45;;;23.23;;
36797;SDS011;22748;8.426;99.512;2023-02-28T06:31:22;26.20;;;23.35;;
36797;SDS011;22748;8.426;99.512;2023-02-28T06:33:55;26.92;;;23.83;;
36797;SDS011;22748;8.426;99.512;2023-02-28T06:36:26;29.00;;;24.63;;
36797;SDS011;22748;8.426;99.512;2023-02-28T06:38:56;28.52;;;23.92;;
36797;SDS011;22748;8.426;99.512;2023-02-28T06:41:27;26.73;;;23.05;;
36797;SDS011;22748;8.426;99.512;2023-02-28T06:43:59;26.48;;;23.60;;
36797;SDS011;22748;8.426;99.512;2023-02-28T06:46:29;25.98;;;23.33;;
36797;SDS011;22748;8.426;99.512;2023-02-28T06:48:59;27.77;;;23.08;;
36797;SDS011;22748;8.426;99.512;2023-02-28T06:51:32;26.38;;;22.30;;
36797;SDS011;22748;8.426;99.512;2023-02-28T06:54:03;26.15;;;23.38;;
36797;SDS011;22748;8.426;99.512;2023-02-28T06:56:35;25.67;;;22.88;;
36797;SDS011;22748;8.426;99.512;2023-02-28T06:59:07;26.30;;;23.30;;
36797;SDS011;22748;8.426;99.512;2023-02-28T07:01:38;25.70;;;22.92;;
36797;SDS011;22748;8.426;99.512;2023-02-28T07:04:08;27.83;;;21.73;;
36797;SDS011;22748;8.426;99.512;2023-02-28T07:06:39;24.73;;;21.95;;
36797;SDS011;22748;8.426;99.512;2023-02-28T07:09:09;27.25;;;22.67;;
36797;SDS011;22748;8.426;99.512;2023-02-28T07:11:39;25.50;;;22.77;;
36797;SDS011;22748;8.426;99.512;2023-02-28T07:14:14;26.85;;;22.83;;
36797;SDS011;22748;8.426;99.512;2023-02-28T07:16:45;26.98;;;22.33;;
36797;SDS011;22748;8.426;99.512;2023-02-28T07:19:24;25.45;;;22.73;;
36797;SDS011;22748;8.426;99.512;2023-02-28T07:21:55;27.70;;;22.73;;
36797;SDS011;22748;8.426;99.512;2023-02-28T07:24:26;26.50;;;22.90;;
36797;SDS011;22748;8.426;99.512;2023-02-28T07:26:57;26.05;;;23.35;;
36797;SDS011;22748;8.426;99.512;2023-02-28T07:29:30;28.33;;;24.67;;
36797;SDS011;22748;8.426;99.512;2023-02-28T07:32:01;28.75;;;23.45;;
36797;SDS011;22748;8.426;99.512;2023-02-28T07:34:32;26.65;;;23.92;;
36797;SDS011;22748;8.426;99.512;2023-02-28T07:37:03;29.52;;;24.10;;
36797;SDS011;22748;8.426;99.512;2023-02-28T07:39:34;29.75;;;24.58;;
36797;SDS011;22748;8.426;99.512;2023-02-28T07:44:39;27.85;;;24.58;;
36797;SDS011;22748;8.426;99.512;2023-02-28T07:47:11;28.58;;;25.27;;
36797;SDS011;22748;8.426;99.512;2023-02-28T07:49:41;28.33;;;24.70;;
36797;SDS011;22748;8.426;99.512;2023-02-28T07:52:11;27.92;;;24.10;;
36797;SDS011;22748;8.426;99.512;2023-02-28T07:54:45;28.20;;;24.38;;
36797;SDS011;22748;8.426;99.512;2023-02-28T07:57:16;27.58;;;24.80;;
36797;SDS011;22748;8.426;99.512;2023-02-28T07:59:48;28.30;;;24.42;;
36797;SDS011;22748;8.426;99.512;2023-02-28T08:02:18;30.13;;;25.00;;
36797;SDS011;22748;8.426;99.512;2023-02-28T08:04:49;27.35;;;24.45;;
36797;SDS011;22748;8.426;99.512;2023-02-28T08:07:19;29.17;;;26.05;;
36797;SDS011;22748;8.426;99.512;2023-02-28T08:09:49;32.08;;;25.15;;
36797;SDS011;22748;8.426;99.512;2023-02-28T08:12:19;27.77;;;24.80;;
36797;SDS011;22748;8.426;99.512;2023-02-28T08:14:51;31.90;;;25.60;;
36797;SDS011;22748;8.426;99.512;2023-02-28T08:17:22;29.20;;;24.70;;
36797;SDS011;22748;8.426;99.512;2023-02-28T08:19:53;27.08;;;24.25;;
36797;SDS011;22748;8.426;99.512;2023-02-28T08:22:22;27.10;;;24.20;;
36797;SDS011;22748;8.426;99.512;2023-02-28T08:24:55;29.05;;;24.48;;
36797;SDS011;22748;8.426;99.512;2023-02-28T08:27:26;28.15;;;24.33;;
36797;SDS011;22748;8.426;99.512;2023-02-28T08:29:57;29.75;;;25.08;;
36797;SDS011;22748;8.426;99.512;2023-02-28T08:32:27;30.52;;;24.92;;
36797;SDS011;22748;8.426;99.512;2023-02-28T08:34:57;28.20;;;25.23;;
36797;SDS011;22748;8.426;99.512;2023-02-28T08:37:29;37.60;;;26.42;;
36797;SDS011;22748;8.426;99.512;2023-02-28T08:39:59;33.78;;;24.90;;
36797;SDS011;22748;8.426;99.512;2023-02-28T08:42:30;32.55;;;25.17;;
36797;SDS011;22748;8.426;99.512;2023-02-28T08:45:05;27.55;;;24.15;;
36797;SDS011;22748;8.426;99.512;2023-02-28T08:47:41;25.77;;;23.00;;
36797;SDS011;22748;8.426;99.512;2023-02-28T08:52:43;30.35;;;23.25;;
36797;SDS011;22748;8.426;99.512;2023-02-28T08:55:16;28.42;;;24.17;;
36797;SDS011;22748;8.426;99.512;2023-02-28T08:57:47;29.25;;;23.80;;
36797;SDS011;22748;8.426;99.512;2023-02-28T09:00:21;33.42;;;26.83;;
36797;SDS011;22748;8.426;99.512;2023-02-28T09:02:54;35.97;;;27.70;;
36797;SDS011;22748;8.426;99.512;2023-02-28T09:05:24;34.67;;;27.40;;
36797;SDS011;22748;8.426;99.512;2023-02-28T09:07:56;31.27;;;25.40;;
36797;SDS011;22748;8.426;99.512;2023-02-28T09:10:28;31.73;;;24.85;;
36797;SDS011;22748;8.426;99.512;2023-02-28T09:12:59;28.95;;;24.58;;
36797;SDS011;22748;8.426;99.512;2023-02-28T09:15:42;26.08;;;23.38;;
36797;SDS011;22748;8.426;99.512;2023-02-28T09:18:14;32.28;;;24.50;;
36797;SDS011;22748;8.426;99.512;2023-02-28T09:20:45;31.45;;;24.08;;
36797;SDS011;22748;8.426;99.512;2023-02-28T09:23:16;26.63;;;23.63;;
36797;SDS011;22748;8.426;99.512;2023-02-28T09:25:46;30.85;;;25.08;;
36797;SDS011;22748;8.426;99.512;2023-02-28T09:28:17;27.75;;;24.70;;
36797;SDS011;22748;8.426;99.512;2023-02-28T09:30:53;27.02;;;24.23;;
36797;SDS011;22748;8.426;99.512;2023-02-28T09:33:25;29.23;;;23.85;;
36797;SDS011;22748;8.426;99.512;2023-02-28T09:35:59;30.35;;;25.02;;
36797;SDS011;22748;8.426;99.512;2023-02-28T09:38:37;28.08;;;24.88;;
36797;SDS011;22748;8.426;99.512;2023-02-28T09:41:11;29.02;;;25.83;;
36797;SDS011;22748;8.426;99.512;2023-02-28T09:43:44;26.95;;;24.10;;
36797;SDS011;22748;8.426;99.512;2023-02-28T09:46:30;30.83;;;25.10;;
36797;SDS011;22748;8.426;99.512;2023-02-28T09:49:04;29.50;;;25.77;;
36797;SDS011;22748;8.426;99.512;2023-02-28T09:51:52;27.95;;;25.02;;
36797;SDS011;22748;8.426;99.512;2023-02-28T09:54:29;34.13;;;24.80;;
36797;SDS011;22748;8.426;99.512;2023-02-28T09:57:06;31.20;;;25.85;;
36797;SDS011;22748;8.426;99.512;2023-02-28T10:02:53;31.45;;;24.60;;
36797;SDS011;22748;8.426;99.512;2023-02-28T10:05:38;30.15;;;24.88;;
36797;SDS011;22748;8.426;99.512;2023-02-28T10:08:13;26.95;;;24.15;;
36797;SDS011;22748;8.426;99.512;2023-02-28T10:10:48;29.15;;;23.52;;
36797;SDS011;22748;8.426;99.512;2023-02-28T10:13:23;30.02;;;24.92;;
36797;SDS011;22748;8.426;99.512;2023-02-28T10:15:56;28.63;;;24.15;;
36797;SDS011;22748;8.426;99.512;2023-02-28T10:18:33;27.70;;;23.63;;
36797;SDS011;22748;8.426;99.512;2023-02-28T10:21:15;30.83;;;24.50;;
36797;SDS011;22748;8.426;99.512;2023-02-28T10:23:51;27.85;;;24.83;;
36797;SDS011;22748;8.426;99.512;2023-02-28T10:26:28;30.77;;;24.40;;
36797;SDS011;22748;8.426;99.512;2023-02-28T10:29:01;26.48;;;22.92;;
36797;SDS011;22748;8.426;99.512;2023-02-28T10:31:32;30.25;;;23.65;;
36797;SDS011;22748;8.426;99.512;2023-02-28T10:34:04;26.65;;;23.48;;
36797;SDS011;22748;8.426;99.512;2023-02-28T10:36:35;27.75;;;23.25;;
36797;SDS011;22748;8.426;99.512;2023-02-28T10:42:18;28.00;;;24.98;;
36797;SDS011;22748;8.426;99.512;2023-02-28T10:45:10;27.98;;;24.50;;
36797;SDS011;22748;8.426;99.512;2023-02-28T10:47:52;28.05;;;23.67;;
36797;SDS011;22748;8.426;99.512;2023-02-28T10:50:30;30.48;;;24.92;;
36797;SDS011;22748;8.426;99.512;2023-02-28T10:53:33;27.50;;;23.88;;
36797;SDS011;22748;8.426;99.512;2023-02-28T10:56:16;28.15;;;24.35;;
36797;SDS011;22748;8.426;99.512;2023-02-28T10:58:51;28.73;;;24.88;;
36797;SDS011;22748;8.426;99.512;2023-02-28T11:01:24;29.50;;;24.70;;
36797;SDS011;22748;8.426;99.512;2023-02-28T11:07:04;35.88;;;28.35;;
36797;SDS011;22748;8.426;99.512;2023-02-28T11:09:48;31.70;;;26.23;;
36797;SDS011;22748;8.426;99.512;2023-02-28T11:12:23;33.60;;;27.10;;
36797;SDS011;22748;8.426;99.512;2023-02-28T11:14:58;35.65;;;29.88;;
36797;SDS011;22748;8.426;99.512;2023-02-28T11:17:41;36.17;;;28.27;;
36797;SDS011;22748;8.426;99.512;2023-02-28T11:20:20;40.42;;;29.45;;
36797;SDS011;22748;8.426;99.512;2023-02-28T11:22:55;41.28;;;30.60;;
36797;SDS011;22748;8.426;99.512;2023-02-28T11:25:30;46.78;;;32.17;;
36797;SDS011;22748;8.426;99.512;2023-02-28T11:28:02;46.30;;;31.27;;
36797;SDS011;22748;8.426;99.512;2023-02-28T11:30:34;43.83;;;29.20;;
36797;SDS011;22748;8.426;99.512;2023-02-28T11:35:58;38.13;;;28.50;;
36797;SDS011;22748;8.426;99.512;2023-02-28T11:38:34;32.20;;;26.83;;
36797;SDS011;22748;8.426;99.512;2023-02-28T11:41:10;37.10;;;26.73;;
36797;SDS011;22748;8.426;99.512;2023-02-28T11:43:58;31.45;;;25.63;;
36797;SDS011;22748;8.426;99.512;2023-02-28T11:46:45;31.48;;;26.45;;
36797;SDS011;22748;8.426;99.512;2023-02-28T11:49:23;38.97;;;26.88;;
36797;SDS011;22748;8.426;99.512;2023-02-28T11:52:02;37.72;;;27.08;;
36797;SDS011;22748;8.426;99.512;2023-02-28T11:54:54;30.08;;;24.33;;
36797;SDS011;22748;8.426;99.512;2023-02-28T11:57:40;29.35;;;25.27;;
36797;SDS011;22748;8.426;99.512;2023-02-28T12:00:28;30.98;;;27.10;;
36797;SDS011;22748;8.426;99.512;2023-02-28T12:03:12;35.75;;;28.98;;
36797;SDS011;22748;8.426;99.512;2023-02-28T12:05:51;28.45;;;25.38;;
36797;SDS011;22748;8.426;99.512;2023-02-28T12:08:35;30.27;;;25.05;;
36797;SDS011;22748;8.426;99.512;2023-02-28T12:11:21;27.77;;;23.65;;
36797;SDS011;22748;8.426;99.512;2023-02-28T12:14:10;26.45;;;23.63;;
36797;SDS011;22748;8.426;99.512;2023-02-28T12:17:15;28.85;;;23.75;;
36797;SDS011;22748;8.426;99.512;2023-02-28T12:19:57;27.10;;;24.23;;
36797;SDS011;22748;8.426;99.512;2023-02-28T12:22:40;27.33;;;22.58;;
36797;SDS011;22748;8.426;99.512;2023-02-28T12:25:24;26.67;;;23.35;;
36797;SDS011;22748;8.426;99.512;2023-02-28T12:28:15;27.67;;;23.38;;
36797;SDS011;22748;8.426;99.512;2023-02-28T12:30:53;27.33;;;24.38;;
36797;SDS011;22748;8.426;99.512;2023-02-28T12:33:28;28.23;;;22.45;;
36797;SDS011;22748;8.426;99.512;2023-02-28T12:36:09;25.95;;;23.15;;
36797;SDS011;22748;8.426;99.512;2023-02-28T12:38:46;29.02;;;25.05;;
36797;SDS011;22748;8.426;99.512;2023-02-28T12:41:19;26.20;;;23.50;;
36797;SDS011;22748;8.426;99.512;2023-02-28T12:43:58;30.90;;;24.40;;
36797;SDS011;22748;8.426;99.512;2023-02-28T12:46:32;27.33;;;23.20;;
36797;SDS011;22748;8.426;99.512;2023-02-28T12:49:06;26.80;;;22.60;;
36797;SDS011;22748;8.426;99.512;2023-02-28T12:51:41;24.67;;;21.85;;
36797;SDS011;22748;8.426;99.512;2023-02-28T12:54:14;24.15;;;21.65;;
36797;SDS011;22748;8.426;99.512;2023-02-28T12:56:52;26.27;;;22.20;;
36797;SDS011;22748;8.426;99.512;2023-02-28T12:59:30;25.48;;;21.85;;
36797;SDS011;22748;8.426;99.512;2023-02-28T13:05:29;24.17;;;21.63;;
36797;SDS011;22748;8.426;99.512;2023-02-28T13:11:25;123.63;;;89.68;;
36797;SDS011;22748;8.426;99.512;2023-02-28T13:14:01;97.00;;;70.00;;
36797;SDS011;22748;8.426;99.512;2023-02-28T13:19:31;46.30;;;34.88;;
36797;SDS011;22748;8.426;99.512;2023-02-28T13:22:03;38.25;;;31.50;;
36797;SDS011;22748;8.426;99.512;2023-02-28T13:24:46;40.60;;;31.02;;
36797;SDS011;22748;8.426;99.512;2023-02-28T13:27:22;33.17;;;28.20;;
36797;SDS011;22748;8.426;99.512;2023-02-28T13:33:23;28.77;;;24.23;;
36797;SDS011;22748;8.426;99.512;2023-02-28T13:39:00;30.17;;;23.90;;
36797;SDS011;22748;8.426;99.512;2023-02-28T13:41:47;27.08;;;22.38;;
36797;SDS011;22748;8.426;99.512;2023-02-28T13:44:23;25.63;;;22.02;;
36797;SDS011;22748;8.426;99.512;2023-02-28T13:50:08;28.83;;;25.73;;
36797;SDS011;22748;8.426;99.512;2023-02-28T13:52:52;29.55;;;23.30;;
36797;SDS011;22748;8.426;99.512;2023-02-28T13:55:43;25.80;;;23.02;;
36797;SDS011;22748;8.426;99.512;2023-02-28T13:58:22;29.55;;;23.08;;
36797;SDS011;22748;8.426;99.512;2023-02-28T14:01:16;29.23;;;22.77;;
36797;SDS011;22748;8.426;99.512;2023-02-28T14:04:17;29.75;;;22.88;;
36797;SDS011;22748;8.426;99.512;2023-02-28T14:07:36;31.50;;;27.23;;
36797;SDS011;22748;8.426;99.512;2023-02-28T14:10:22;43.63;;;37.55;;
36797;SDS011;22748;8.426;99.512;2023-02-28T14:13:02;33.00;;;28.58;;
36797;SDS011;22748;8.426;99.512;2023-02-28T14:15:41;30.40;;;27.08;;
36797;SDS011;22748;8.426;99.512;2023-02-28T14:18:27;40.03;;;30.98;;
36797;SDS011;22748;8.426;99.512;2023-02-28T14:21:09;40.13;;;30.88;;
36797;SDS011;22748;8.426;99.512;2023-02-28T14:36:18;37.17;;;29.67;;
36797;SDS011;22748;8.426;99.512;2023-02-28T14:38:55;39.92;;;31.45;;
36797;SDS011;22748;8.426;99.512;2023-02-28T14:41:32;37.28;;;31.42;;
36797;SDS011;22748;8.426;99.512;2023-02-28T14:44:18;39.58;;;31.60;;
36797;SDS011;22748;8.426;99.512;2023-02-28T14:46:52;44.05;;;33.40;;
36797;SDS011;22748;8.426;99.512;2023-02-28T14:49:24;39.90;;;33.85;;
36797;SDS011;22748;8.426;99.512;2023-02-28T14:52:06;49.25;;;34.70;;
36797;SDS011;22748;8.426;99.512;2023-02-28T14:54:43;43.13;;;36.88;;
36797;SDS011;22748;8.426;99.512;2023-02-28T14:57:22;41.70;;;35.08;;
36797;SDS011;22748;8.426;99.512;2023-02-28T14:59:58;42.83;;;37.13;;
36797;SDS011;22748;8.426;99.512;2023-02-28T15:02:31;45.78;;;36.92;;
36797;SDS011;22748;8.426;99.512;2023-02-28T15:05:15;48.08;;;38.03;;
36797;SDS011;22748;8.426;99.512;2023-02-28T15:08:10;40.30;;;35.92;;
36797;SDS011;22748;8.426;99.512;2023-02-28T15:10:44;40.92;;;33.47;;
36797;SDS011;22748;8.426;99.512;2023-02-28T15:13:20;39.33;;;32.50;;
36797;SDS011;22748;8.426;99.512;2023-02-28T15:15:57;38.15;;;31.42;;
36797;SDS011;22748;8.426;99.512;2023-02-28T15:18:31;33.97;;;30.23;;
36797;SDS011;22748;8.426;99.512;2023-02-28T15:21:15;34.10;;;28.83;;
36797;SDS011;22748;8.426;99.512;2023-02-28T15:23:54;31.77;;;27.58;;
36797;SDS011;22748;8.426;99.512;2023-02-28T15:26:29;30.35;;;27.05;;
36797;SDS011;22748;8.426;99.512;2023-02-28T15:29:04;31.67;;;27.63;;
36797;SDS011;22748;8.426;99.512;2023-02-28T15:31:43;31.80;;;26.25;;
36797;SDS011;22748;8.426;99.512;2023-02-28T15:34:17;33.22;;;26.75;;
36797;SDS011;22748;8.426;99.512;2023-02-28T15:36:49;29.60;;;25.30;;
36797;SDS011;22748;8.426;99.512;2023-02-28T15:39:41;29.00;;;25.90;;
36797;SDS011;22748;8.426;99.512;2023-02-28T15:42:19;27.20;;;24.15;;
36797;SDS011;22748;8.426;99.512;2023-02-28T15:44:57;27.75;;;24.48;;
36797;SDS011;22748;8.426;99.512;2023-02-28T15:47:29;29.10;;;24.58;;
36797;SDS011;22748;8.426;99.512;2023-02-28T15:50:00;27.83;;;24.77;;
36797;SDS011;22748;8.426;99.512;2023-02-28T15:52:38;27.17;;;24.42;;
36797;SDS011;22748;8.426;99.512;2023-02-28T15:55:29;29.17;;;24.23;;
36797;SDS011;22748;8.426;99.512;2023-02-28T15:58:05;29.02;;;24.23;;
36797;SDS011;22748;8.426;99.512;2023-02-28T16:03:49;27.08;;;23.33;;
36797;SDS011;22748;8.426;99.512;2023-02-28T16:06:28;29.00;;;24.92;;
36797;SDS011;22748;8.426;99.512;2023-02-28T16:09:16;28.42;;;23.17;;
36797;SDS011;22748;8.426;99.512;2023-02-28T16:12:09;28.70;;;24.70;;
36797;SDS011;22748;8.426;99.512;2023-02-28T16:14:40;27.95;;;25.05;;
36797;SDS011;22748;8.426;99.512;2023-02-28T16:17:18;31.55;;;25.77;;
36797;SDS011;22748;8.426;99.512;2023-02-28T16:19:51;29.15;;;24.85;;
36797;SDS011;22748;8.426;99.512;2023-02-28T16:22:23;30.05;;;26.85;;